createdAt,value
2023-05-21T00:00:35.754Z,0
2023-05-21T00:01:52.055Z,0
2023-05-21T00:03:07.368Z,0
2023-05-21T00:04:23.661Z,0
2023-05-21T00:05:39.948Z,0
2023-05-21T00:06:56.249Z,0
2023-05-21T00:08:12.532Z,0
2023-05-21T00:09:28.839Z,0
2023-05-21T00:10:44.151Z,0
2023-05-21T00:12:00.435Z,0
2023-05-21T00:13:16.725Z,0
2023-05-21T00:14:33.030Z,0
2023-05-21T00:15:49.330Z,0
2023-05-21T00:17:05.615Z,0
2023-05-21T00:18:21.902Z,0
2023-05-21T00:19:38.196Z,0
2023-05-21T00:20:54.492Z,0
2023-05-21T00:22:10.782Z,0
2023-05-21T00:23:27.076Z,0
2023-05-21T00:24:43.370Z,0
2023-05-21T00:25:59.668Z,0
2023-05-21T00:27:14.991Z,0
2023-05-21T00:28:31.285Z,0
2023-05-21T00:29:47.579Z,0
2023-05-21T00:31:03.869Z,0
2023-05-21T00:32:20.167Z,0
2023-05-21T00:33:36.442Z,0
2023-05-21T00:34:52.736Z,0
2023-05-21T00:36:09.047Z,0
2023-05-21T00:37:25.341Z,0
2023-05-21T00:38:41.643Z,0
2023-05-21T00:39:57.930Z,0
2023-05-21T00:41:14.218Z,0
2023-05-21T00:42:30.503Z,0
2023-05-21T00:43:45.810Z,0
2023-05-21T00:45:02.118Z,0
2023-05-21T00:46:18.411Z,0
2023-05-21T00:47:34.702Z,0
2023-05-21T00:48:50.994Z,0
2023-05-21T00:50:07.276Z,0
2023-05-21T00:51:23.572Z,0
2023-05-21T00:52:39.873Z,0
2023-05-21T00:53:56.163Z,0
2023-05-21T00:55:12.460Z,0
2023-05-21T00:56:28.761Z,0
2023-05-21T00:57:45.042Z,0
2023-05-21T00:59:01.360Z,0
2023-05-21T01:00:16.656Z,0
2023-05-21T01:02:49.240Z,0
2023-05-21T01:04:05.541Z,0
2023-05-21T01:05:21.828Z,0
2023-05-21T01:06:38.128Z,0
2023-05-21T01:07:54.416Z,0
2023-05-21T01:09:10.710Z,0
2023-05-21T01:10:27.009Z,0
2023-05-21T01:11:43.298Z,0
2023-05-21T01:12:59.584Z,0
2023-05-21T01:14:15.886Z,0
2023-05-21T01:15:32.176Z,0
2023-05-21T01:16:47.492Z,0
2023-05-21T01:18:03.781Z,0
2023-05-21T01:19:20.081Z,0
2023-05-21T01:20:36.373Z,0
2023-05-21T01:21:52.656Z,0
2023-05-21T01:23:08.000Z,0
2023-05-21T01:24:25.239Z,0
2023-05-21T01:25:41.536Z,0
2023-05-21T01:26:57.836Z,0
2023-05-21T01:28:14.125Z,0
2023-05-21T01:29:30.419Z,0
2023-05-21T01:30:46.737Z,0
2023-05-21T01:32:03.011Z,0
2023-05-21T01:33:18.329Z,0
2023-05-21T01:34:34.613Z,0
2023-05-21T01:35:50.904Z,0
2023-05-21T01:37:07.194Z,0
2023-05-21T01:38:23.500Z,0
2023-05-21T01:39:39.781Z,0
2023-05-21T01:40:56.082Z,0
2023-05-21T01:42:12.386Z,0
2023-05-21T01:43:28.664Z,0
2023-05-21T01:44:44.966Z,0
2023-05-21T01:46:01.255Z,0
2023-05-21T01:47:17.553Z,0
2023-05-21T01:48:33.854Z,0
2023-05-21T01:49:49.171Z,0
2023-05-21T01:51:05.457Z,0
2023-05-21T01:52:21.744Z,0
2023-05-21T01:53:38.033Z,0
2023-05-21T01:54:54.331Z,0
2023-05-21T01:56:10.616Z,0
2023-05-21T01:57:26.931Z,0
2023-05-21T01:58:43.211Z,0
2023-05-21T01:59:59.508Z,0
2023-05-21T02:01:15.791Z,0
2023-05-21T02:02:32.084Z,0
2023-05-21T02:03:48.377Z,0
2023-05-21T02:05:04.682Z,0
2023-05-21T02:06:19.983Z,0
2023-05-21T02:07:36.283Z,0
2023-05-21T02:08:52.595Z,0
2023-05-21T02:10:08.867Z,0
2023-05-21T02:11:25.182Z,0
2023-05-21T02:12:41.451Z,0
2023-05-21T02:13:57.745Z,0
2023-05-21T02:15:14.038Z,0
2023-05-21T02:16:30.331Z,0
2023-05-21T02:17:46.635Z,0
2023-05-21T02:19:02.935Z,0
2023-05-21T02:20:19.211Z,0
2023-05-21T02:21:35.534Z,0
2023-05-21T02:22:50.815Z,0
2023-05-21T02:24:07.112Z,0
2023-05-21T02:25:23.409Z,0
2023-05-21T02:26:39.705Z,0
2023-05-21T02:27:55.997Z,0
2023-05-21T02:29:12.287Z,0
2023-05-21T02:30:28.601Z,0
2023-05-21T02:31:44.902Z,0
2023-05-21T02:33:01.180Z,0
2023-05-21T02:34:17.458Z,0
2023-05-21T02:35:33.700Z,1
2023-05-21T02:36:49.999Z,0
2023-05-21T02:38:06.290Z,0
2023-05-21T02:39:21.624Z,0
2023-05-21T02:40:37.870Z,1
2023-05-21T02:41:54.095Z,1
2023-05-21T02:43:10.358Z,1
2023-05-21T02:44:26.577Z,2
2023-05-21T02:45:42.825Z,2
2023-05-21T02:46:59.067Z,1
2023-05-21T02:48:15.314Z,1
2023-05-21T02:49:31.571Z,2
2023-05-21T02:50:47.787Z,1
2023-05-21T02:52:04.056Z,1
2023-05-21T02:53:20.259Z,4
2023-05-21T02:54:36.497Z,7
2023-05-21T02:55:51.771Z,2
2023-05-21T02:57:08.009Z,4
2023-05-21T02:58:24.241Z,5
2023-05-21T02:59:40.506Z,9
2023-05-21T03:00:56.731Z,10
2023-05-21T03:02:12.976Z,11
2023-05-21T03:03:29.220Z,11
2023-05-21T03:04:45.441Z,13
2023-05-21T03:06:01.675Z,13
2023-05-21T03:07:17.935Z,16
2023-05-21T03:09:50.425Z,24
2023-05-21T03:11:06.641Z,25
2023-05-21T03:12:21.894Z,28
2023-05-21T03:13:38.156Z,30
2023-05-21T03:14:54.373Z,32
2023-05-21T03:16:10.605Z,39
2023-05-21T03:17:26.861Z,37
2023-05-21T03:18:43.089Z,41
2023-05-21T03:19:59.362Z,45
2023-05-21T03:21:15.565Z,47
2023-05-21T03:22:31.819Z,49
2023-05-21T03:23:48.064Z,55
2023-05-21T03:25:04.295Z,63
2023-05-21T03:26:20.532Z,64
2023-05-21T03:27:36.765Z,67
2023-05-21T03:28:52.024Z,74
2023-05-21T03:30:08.276Z,78
2023-05-21T03:31:24.517Z,88
2023-05-21T03:32:40.740Z,96
2023-05-21T03:33:57.013Z,101
2023-05-21T03:35:13.236Z,108
2023-05-21T03:36:29.490Z,120
2023-05-21T03:37:45.722Z,134
2023-05-21T03:39:01.945Z,137
2023-05-21T03:40:18.183Z,148
2023-05-21T03:41:34.429Z,156
2023-05-21T03:42:50.681Z,167
2023-05-21T03:44:06.906Z,173
2023-05-21T03:46:38.402Z,190
2023-05-21T03:47:54.656Z,197
2023-05-21T03:50:27.117Z,214
2023-05-21T03:51:43.367Z,224
2023-05-21T03:52:59.594Z,234
2023-05-21T03:54:15.850Z,243
2023-05-21T03:55:32.076Z,255
2023-05-21T03:56:48.319Z,266
2023-05-21T03:58:04.558Z,284
2023-05-21T03:59:20.792Z,293
2023-05-21T04:00:37.028Z,309
2023-05-21T04:01:52.287Z,319
2023-05-21T04:03:08.539Z,331
2023-05-21T04:04:24.766Z,356
2023-05-21T04:05:41.032Z,368
2023-05-21T04:06:57.257Z,395
2023-05-21T04:08:13.489Z,417
2023-05-21T04:09:29.736Z,434
2023-05-21T04:10:45.995Z,454
2023-05-21T04:12:02.203Z,475
2023-05-21T04:13:18.482Z,496
2023-05-21T04:14:34.716Z,515
2023-05-21T04:15:50.923Z,498
2023-05-21T04:17:07.198Z,491
2023-05-21T04:18:22.447Z,552
2023-05-21T04:19:38.660Z,595
2023-05-21T04:20:54.917Z,616
2023-05-21T04:22:11.163Z,634
2023-05-21T04:23:27.389Z,623
2023-05-21T04:24:43.642Z,673
2023-05-21T04:25:58.902Z,681
2023-05-21T04:27:15.121Z,719
2023-05-21T04:28:31.383Z,707
2023-05-21T04:29:47.604Z,705
2023-05-21T04:31:03.843Z,718
2023-05-21T04:32:20.088Z,736
2023-05-21T04:33:36.343Z,762
2023-05-21T04:34:52.564Z,789
2023-05-21T04:36:08.801Z,796
2023-05-21T04:37:25.049Z,824
2023-05-21T04:38:41.291Z,831
2023-05-21T04:39:57.520Z,830
2023-05-21T04:41:13.774Z,839
2023-05-21T04:42:29.042Z,872
2023-05-21T04:43:45.254Z,911
2023-05-21T04:45:01.491Z,947
2023-05-21T04:46:17.759Z,931
2023-05-21T04:47:34.003Z,951
2023-05-21T04:48:50.213Z,949
2023-05-21T04:50:06.459Z,951
2023-05-21T04:51:22.719Z,961
2023-05-21T04:52:38.939Z,967
2023-05-21T04:53:55.197Z,978
2023-05-21T04:55:11.416Z,992
2023-05-21T04:56:27.676Z,992
2023-05-21T04:57:43.899Z,999
2023-05-21T04:58:59.149Z,1013
2023-05-21T05:00:15.392Z,1021
2023-05-21T05:01:31.628Z,1032
2023-05-21T05:02:47.874Z,1041
2023-05-21T05:04:04.111Z,1043
2023-05-21T05:05:20.364Z,1069
2023-05-21T05:06:36.594Z,1105
2023-05-21T05:07:52.833Z,1131
2023-05-21T05:09:09.089Z,1139
2023-05-21T05:10:25.310Z,1142
2023-05-21T05:11:41.553Z,1164
2023-05-21T05:12:57.816Z,1169
2023-05-21T05:14:14.032Z,1176
2023-05-21T05:15:29.283Z,1201
2023-05-21T05:16:45.536Z,1233
2023-05-21T05:18:01.776Z,1300
2023-05-21T05:19:18.030Z,1339
2023-05-21T05:21:50.484Z,1389
2023-05-21T05:23:06.715Z,1413
2023-05-21T05:24:22.962Z,1416
2023-05-21T05:25:39.202Z,1445
2023-05-21T05:26:55.445Z,1482
2023-05-21T05:28:11.683Z,1523
2023-05-21T05:29:27.942Z,1563
2023-05-21T05:30:44.156Z,1594
2023-05-21T05:31:59.426Z,1623
2023-05-21T05:33:15.651Z,1674
2023-05-21T05:34:31.918Z,1703
2023-05-21T05:35:48.143Z,1722
2023-05-21T05:37:04.397Z,1748
2023-05-21T05:38:20.622Z,1802
2023-05-21T05:39:36.883Z,1847
2023-05-21T05:40:53.114Z,1947
2023-05-21T05:42:09.335Z,2013
2023-05-21T05:43:25.580Z,2035
2023-05-21T05:44:41.822Z,2061
2023-05-21T05:45:58.076Z,2133
2023-05-21T05:47:14.302Z,2143
2023-05-21T05:48:29.560Z,2216
2023-05-21T05:49:45.801Z,2312
2023-05-21T05:51:02.068Z,2380
2023-05-21T05:52:18.261Z,2373
2023-05-21T05:53:34.517Z,2492
2023-05-21T05:54:50.746Z,2473
2023-05-21T05:56:06.987Z,2433
2023-05-21T05:57:23.234Z,2447
2023-05-21T05:58:39.471Z,2399
2023-05-21T05:59:55.713Z,2465
2023-05-21T06:01:11.973Z,2494
2023-05-21T06:02:28.180Z,2574
2023-05-21T06:03:44.436Z,2517
2023-05-21T06:04:59.688Z,2582
2023-05-21T06:06:15.916Z,2642
2023-05-21T06:07:32.168Z,2636
2023-05-21T06:08:48.399Z,2695
2023-05-21T06:10:04.634Z,2750
2023-05-21T06:11:20.876Z,2758
2023-05-21T06:12:37.120Z,2801
2023-05-21T06:13:53.353Z,2705
2023-05-21T06:15:09.594Z,2685
2023-05-21T06:16:25.867Z,2701
2023-05-21T06:17:42.074Z,2729
2023-05-21T06:18:58.320Z,2868
2023-05-21T06:20:14.554Z,2954
2023-05-21T06:21:29.811Z,2920
2023-05-21T06:22:46.053Z,3089
2023-05-21T06:24:02.292Z,2999
2023-05-21T06:25:18.537Z,2987
2023-05-21T06:26:34.773Z,3153
2023-05-21T06:27:51.008Z,3054
2023-05-21T06:29:07.245Z,2896
2023-05-21T06:30:23.501Z,2996
2023-05-21T06:32:55.966Z,3203
2023-05-21T06:34:12.213Z,3128
2023-05-21T06:36:44.690Z,3352
2023-05-21T06:37:59.946Z,3376
2023-05-21T06:39:16.178Z,3430
2023-05-21T06:40:32.431Z,3537
2023-05-21T06:41:48.664Z,3528
2023-05-21T06:43:04.936Z,3473
2023-05-21T06:44:21.156Z,3645
2023-05-21T06:45:37.378Z,3653
2023-05-21T06:46:53.620Z,3784
2023-05-21T06:48:09.868Z,3992
2023-05-21T06:49:26.117Z,4057
2023-05-21T06:50:42.369Z,4028
2023-05-21T06:51:58.583Z,4056
2023-05-21T06:53:14.851Z,4136
2023-05-21T06:54:30.074Z,4182
2023-05-21T06:55:46.315Z,4119
2023-05-21T06:57:02.552Z,4193
2023-05-21T06:58:18.824Z,4251
2023-05-21T06:59:35.038Z,4256
2023-05-21T07:00:51.285Z,4314
2023-05-21T07:02:07.514Z,4331
2023-05-21T07:03:23.755Z,4390
2023-05-21T07:04:39.997Z,4151
2023-05-21T07:05:56.232Z,4151
2023-05-21T07:07:12.478Z,4215
2023-05-21T07:08:28.719Z,4352
2023-05-21T07:09:44.963Z,4337
2023-05-21T07:11:00.208Z,4451
2023-05-21T07:12:16.452Z,4568
2023-05-21T07:13:32.692Z,4479
2023-05-21T07:14:48.939Z,4557
2023-05-21T07:16:05.199Z,4585
2023-05-21T07:17:21.410Z,4390
2023-05-21T07:18:37.659Z,4514
2023-05-21T07:19:53.883Z,4627
2023-05-21T07:21:10.155Z,4739
2023-05-21T07:22:26.369Z,4429
2023-05-21T07:23:42.606Z,4679
2023-05-21T07:24:58.880Z,4759
2023-05-21T07:26:15.110Z,4829
2023-05-21T07:27:30.371Z,4815
2023-05-21T07:28:46.611Z,4865
2023-05-21T07:30:02.826Z,4866
2023-05-21T07:31:19.056Z,4905
2023-05-21T07:32:35.310Z,5046
2023-05-21T07:33:51.550Z,5024
2023-05-21T07:35:07.786Z,5034
2023-05-21T07:36:24.030Z,4901
2023-05-21T07:37:40.257Z,4783
2023-05-21T07:38:56.492Z,4899
2023-05-21T07:40:12.740Z,4678
2023-05-21T07:41:28.989Z,4773
2023-05-21T07:42:45.248Z,4866
2023-05-21T07:44:01.490Z,4958
2023-05-21T07:45:16.726Z,5089
2023-05-21T07:46:32.966Z,4821
2023-05-21T07:47:49.198Z,4929
2023-05-21T07:49:05.437Z,4873
2023-05-21T07:50:21.670Z,5021
2023-05-21T07:51:37.915Z,4958
2023-05-21T07:52:54.166Z,4978
2023-05-21T07:54:10.392Z,4985
2023-05-21T07:55:26.672Z,4993
2023-05-21T07:56:42.903Z,4919
2023-05-21T07:57:59.121Z,4934
2023-05-21T07:59:15.359Z,4958
2023-05-21T08:00:31.593Z,5079
2023-05-21T08:01:46.855Z,5270
2023-05-21T08:03:03.088Z,5125
2023-05-21T08:04:19.321Z,5334
2023-05-21T08:05:35.580Z,5361
2023-05-21T08:06:51.832Z,5372
2023-05-21T08:08:08.054Z,5371
2023-05-21T08:09:24.294Z,5512
2023-05-21T08:10:40.520Z,5390
2023-05-21T08:11:56.772Z,5565
2023-05-21T08:13:13.004Z,5544
2023-05-21T08:14:29.250Z,5689
2023-05-21T08:15:45.480Z,5567
2023-05-21T08:17:01.725Z,5588
2023-05-21T08:18:16.981Z,5511
2023-05-21T08:19:33.233Z,5705
2023-05-21T08:20:49.462Z,5754
2023-05-21T08:22:05.700Z,5771
2023-05-21T08:23:21.954Z,5884
2023-05-21T08:24:38.178Z,5829
2023-05-21T08:25:54.453Z,5924
2023-05-21T08:27:10.666Z,6032
2023-05-21T08:28:26.927Z,5954
2023-05-21T08:29:43.138Z,5988
2023-05-21T08:30:59.386Z,6069
2023-05-21T08:32:15.614Z,6172
2023-05-21T08:33:31.887Z,6116
2023-05-21T08:34:47.119Z,6137
2023-05-21T08:36:03.357Z,6218
2023-05-21T08:37:19.598Z,6239
2023-05-21T08:38:35.828Z,6128
2023-05-21T08:39:52.073Z,6229
2023-05-21T08:42:24.688Z,6193
2023-05-21T08:43:39.942Z,6154
2023-05-21T08:46:12.417Z,6308
2023-05-21T08:47:28.658Z,6277
2023-05-21T08:48:44.913Z,6280
2023-05-21T08:50:01.136Z,6318
2023-05-21T08:51:17.387Z,6251
2023-05-21T08:52:33.612Z,6410
2023-05-21T08:53:49.852Z,6314
2023-05-21T08:55:06.106Z,6427
2023-05-21T08:56:22.382Z,6399
2023-05-21T08:57:38.573Z,6294
2023-05-21T08:58:54.848Z,6322
2023-05-21T09:00:10.071Z,6573
2023-05-21T09:01:26.308Z,6666
2023-05-21T09:02:42.559Z,6668
2023-05-21T09:03:58.787Z,6676
2023-05-21T09:05:15.024Z,6655
2023-05-21T09:06:31.264Z,6629
2023-05-21T09:07:47.507Z,6635
2023-05-21T09:09:03.763Z,6569
2023-05-21T09:10:19.988Z,6437
2023-05-21T09:11:36.231Z,6358
2023-05-21T09:12:52.470Z,6337
2023-05-21T09:14:08.000Z,6330
2023-05-21T09:15:24.981Z,6304
2023-05-21T09:16:40.200Z,6177
2023-05-21T09:17:56.446Z,6462
2023-05-21T09:19:12.680Z,6235
2023-05-21T09:20:28.922Z,6344
2023-05-21T09:21:45.164Z,6249
2023-05-21T09:23:01.408Z,6313
2023-05-21T09:24:17.647Z,6218
2023-05-21T09:25:33.883Z,6216
2023-05-21T09:26:50.115Z,6259
2023-05-21T09:28:06.355Z,6226
2023-05-21T09:29:22.634Z,6352
2023-05-21T09:30:38.847Z,6235
2023-05-21T09:31:55.081Z,6310
2023-05-21T09:33:10.365Z,6509
2023-05-21T09:34:26.582Z,6222
2023-05-21T09:35:42.827Z,6364
2023-05-21T09:36:59.057Z,6270
2023-05-21T09:38:15.300Z,6220
2023-05-21T09:39:31.532Z,6352
2023-05-21T09:40:47.773Z,6266
2023-05-21T09:42:04.008Z,6532
2023-05-21T09:43:20.253Z,6562
2023-05-21T09:44:36.491Z,6343
2023-05-21T09:45:52.728Z,6356
2023-05-21T09:47:08.976Z,6298
2023-05-21T09:48:25.247Z,6338
2023-05-21T09:49:40.464Z,6437
2023-05-21T09:50:56.715Z,6459
2023-05-21T09:52:12.942Z,6438
2023-05-21T09:53:29.186Z,6503
2023-05-21T09:54:45.432Z,6567
2023-05-21T09:56:01.659Z,6571
2023-05-21T09:57:17.898Z,6306
2023-05-21T09:58:34.139Z,6417
2023-05-21T09:59:50.394Z,6387
2023-05-21T10:01:06.661Z,6256
2023-05-21T10:02:22.868Z,6479
2023-05-21T10:03:39.117Z,6442
2023-05-21T10:04:55.380Z,6296
2023-05-21T10:06:10.601Z,6421
2023-05-21T10:07:26.851Z,6517
2023-05-21T10:08:43.089Z,6258
2023-05-21T10:09:59.312Z,6223
2023-05-21T10:11:15.562Z,6181
2023-05-21T10:12:31.793Z,6246
2023-05-21T10:13:48.046Z,6175
2023-05-21T10:15:04.276Z,6054
2023-05-21T10:17:36.761Z,6280
2023-05-21T10:18:53.002Z,6064
2023-05-21T10:20:09.233Z,6375
2023-05-21T10:21:25.473Z,6114
2023-05-21T10:22:40.741Z,6289
2023-05-21T10:23:56.985Z,6379
2023-05-21T10:25:13.218Z,5924
2023-05-21T10:26:29.492Z,5976
2023-05-21T10:27:45.684Z,6327
2023-05-21T10:29:01.933Z,5680
2023-05-21T10:30:18.211Z,5814
2023-05-21T10:31:34.405Z,5230
2023-05-21T10:32:50.647Z,5551
2023-05-21T10:34:06.893Z,5930
2023-05-21T10:35:23.168Z,5160
2023-05-21T10:36:39.371Z,5495
2023-05-21T10:37:55.642Z,5638
2023-05-21T10:39:10.865Z,5349
2023-05-21T10:40:27.098Z,5374
2023-05-21T10:41:43.354Z,5461
2023-05-21T10:42:59.584Z,5198
2023-05-21T10:44:15.831Z,5011
2023-05-21T10:45:32.059Z,5755
2023-05-21T10:46:48.299Z,5148
2023-05-21T10:48:04.557Z,5112
2023-05-21T10:49:20.786Z,5860
2023-05-21T10:50:37.028Z,5219
2023-05-21T10:51:53.277Z,5816
2023-05-21T10:53:09.515Z,5456
2023-05-21T10:54:25.744Z,5658
2023-05-21T10:55:40.995Z,5709
2023-05-21T10:56:57.243Z,5471
2023-05-21T10:58:13.512Z,5134
2023-05-21T10:59:29.731Z,5681
2023-05-21T11:00:45.951Z,5412
2023-05-21T11:02:02.196Z,5474
2023-05-21T11:03:18.432Z,5353
2023-05-21T11:04:34.683Z,5137
2023-05-21T11:05:50.922Z,5556
2023-05-21T11:07:07.154Z,5263
2023-05-21T11:08:23.394Z,5271
2023-05-21T11:09:39.645Z,5230
2023-05-21T11:10:55.875Z,5184
2023-05-21T11:12:11.144Z,5022
2023-05-21T11:13:27.367Z,5196
2023-05-21T11:14:43.649Z,5290
2023-05-21T11:15:59.852Z,5105
2023-05-21T11:17:16.086Z,5056
2023-05-21T11:18:32.337Z,5192
2023-05-21T11:19:48.606Z,4894
2023-05-21T11:21:04.814Z,5424
2023-05-21T11:22:21.048Z,5257
2023-05-21T11:23:37.299Z,5016
2023-05-21T11:24:53.544Z,5626
2023-05-21T11:26:09.812Z,5449
2023-05-21T11:27:26.008Z,5481
2023-05-21T11:28:41.310Z,5632
2023-05-21T11:29:57.499Z,5438
2023-05-21T11:31:13.758Z,5458
2023-05-21T11:32:29.983Z,5477
2023-05-21T11:33:46.234Z,5555
2023-05-21T11:35:02.477Z,5537
2023-05-21T11:36:18.712Z,5822
2023-05-21T11:37:34.939Z,5552
2023-05-21T11:38:51.183Z,5878
2023-05-21T11:40:07.427Z,5684
2023-05-21T11:41:23.676Z,5847
2023-05-21T11:42:39.899Z,5574
2023-05-21T11:43:56.143Z,5484
2023-05-21T11:45:11.396Z,5546
2023-05-21T11:46:27.643Z,5728
2023-05-21T11:47:43.888Z,5380
2023-05-21T11:49:00.113Z,5300
2023-05-21T11:50:16.352Z,5455
2023-05-21T11:51:32.000Z,5393
2023-05-21T11:52:48.839Z,5159
2023-05-21T11:54:05.086Z,5455
2023-05-21T11:55:21.313Z,5273
2023-05-21T11:56:37.562Z,4749
2023-05-21T11:57:53.799Z,4866
2023-05-21T11:59:10.049Z,5158
2023-05-21T12:01:42.514Z,4801
2023-05-21T12:02:57.766Z,4544
2023-05-21T12:04:14.023Z,4299
2023-05-21T12:05:30.266Z,4310
2023-05-21T12:06:46.488Z,3970
2023-05-21T12:08:02.727Z,4187
2023-05-21T12:09:18.967Z,4211
2023-05-21T12:10:35.222Z,4219
2023-05-21T12:11:51.463Z,4263
2023-05-21T12:13:07.703Z,4990
2023-05-21T12:14:23.979Z,4235
2023-05-21T12:16:56.421Z,4241
2023-05-21T12:18:12.660Z,4227
2023-05-21T12:19:27.910Z,4090
2023-05-21T12:20:44.185Z,4227
2023-05-21T12:22:00.397Z,4019
2023-05-21T12:23:16.628Z,4116
2023-05-21T12:24:32.861Z,4025
2023-05-21T12:25:49.117Z,4246
2023-05-21T12:27:05.348Z,4254
2023-05-21T12:28:21.582Z,4055
2023-05-21T12:30:54.123Z,3889
2023-05-21T12:32:10.355Z,3878
2023-05-21T12:33:26.549Z,4297
2023-05-21T12:35:59.024Z,3392
2023-05-21T12:37:14.279Z,4031
2023-05-21T12:38:29.549Z,4019
2023-05-21T12:39:45.785Z,4005
2023-05-21T12:41:02.032Z,4160
2023-05-21T12:42:18.273Z,4097
2023-05-21T12:43:34.556Z,4317
2023-05-21T12:44:50.752Z,4280
2023-05-21T12:46:06.977Z,4111
2023-05-21T12:47:23.223Z,4310
2023-05-21T12:48:39.503Z,3743
2023-05-21T12:49:54.722Z,4376
2023-05-21T12:51:09.988Z,4068
2023-05-21T12:52:26.260Z,4396
2023-05-21T12:53:42.461Z,4212
2023-05-21T12:54:58.711Z,3024
2023-05-21T12:56:14.938Z,4032
2023-05-21T12:57:31.174Z,3456
2023-05-21T12:58:46.444Z,3741
2023-05-21T13:00:02.682Z,3973
2023-05-21T13:01:18.915Z,4263
2023-05-21T13:02:35.168Z,4313
2023-05-21T13:03:51.403Z,3372
2023-05-21T13:05:07.629Z,3279
2023-05-21T13:06:23.874Z,3157
2023-05-21T13:07:40.120Z,3186
2023-05-21T13:08:56.365Z,3252
2023-05-21T13:10:12.606Z,3781
2023-05-21T13:11:28.844Z,3678
2023-05-21T13:12:45.082Z,4052
2023-05-21T13:14:01.316Z,3375
2023-05-21T13:15:16.568Z,3651
2023-05-21T13:16:32.822Z,3801
2023-05-21T13:17:49.045Z,3382
2023-05-21T13:19:05.292Z,3416
2023-05-21T13:20:21.526Z,3496
2023-05-21T13:21:37.766Z,3399
2023-05-21T13:22:54.010Z,3605
2023-05-21T13:25:26.491Z,3445
2023-05-21T13:26:42.742Z,3126
2023-05-21T13:27:58.972Z,3017
2023-05-21T13:29:15.206Z,2920
2023-05-21T13:30:31.441Z,2757
2023-05-21T13:31:46.753Z,2992
2023-05-21T13:33:02.941Z,2772
2023-05-21T13:34:19.186Z,2997
2023-05-21T13:35:35.430Z,2864
2023-05-21T13:36:51.658Z,2711
2023-05-21T13:38:07.910Z,2693
2023-05-21T13:39:24.148Z,3007
2023-05-21T13:40:40.433Z,2633
2023-05-21T13:41:56.625Z,2549
2023-05-21T13:43:12.869Z,2212
2023-05-21T13:44:29.113Z,2643
2023-05-21T13:45:45.351Z,2574
2023-05-21T13:47:01.575Z,2680
2023-05-21T13:48:16.846Z,2670
2023-05-21T13:49:33.088Z,2775
2023-05-21T13:50:49.324Z,2834
2023-05-21T13:52:05.566Z,2867
2023-05-21T13:53:21.796Z,2761
2023-05-21T13:54:38.047Z,2797
2023-05-21T13:55:54.275Z,3019
2023-05-21T13:57:10.518Z,2983
2023-05-21T13:58:26.808Z,2832
2023-05-21T13:59:42.998Z,2868
2023-05-21T14:00:59.244Z,2859
2023-05-21T14:02:15.468Z,2999
2023-05-21T14:03:31.721Z,3016
2023-05-21T14:04:46.973Z,3158
2023-05-21T14:06:03.219Z,2896
2023-05-21T14:07:19.442Z,3324
2023-05-21T14:08:35.686Z,2932
2023-05-21T14:09:51.973Z,3173
2023-05-21T14:11:08.171Z,3080
2023-05-21T14:12:24.412Z,3013
2023-05-21T14:13:40.644Z,2963
2023-05-21T14:14:56.884Z,2906
2023-05-21T14:16:13.121Z,3080
2023-05-21T14:17:29.375Z,3152
2023-05-21T14:18:45.659Z,3046
2023-05-21T14:20:01.836Z,3157
2023-05-21T14:21:18.217Z,2862
2023-05-21T14:22:34.454Z,2717
2023-05-21T14:23:50.685Z,2926
2023-05-21T14:25:06.923Z,2750
2023-05-21T14:26:23.164Z,2815
2023-05-21T14:27:39.455Z,2615
2023-05-21T14:28:55.646Z,2927
2023-05-21T14:30:11.885Z,2411
2023-05-21T14:31:28.115Z,2876
2023-05-21T14:32:44.410Z,2553
2023-05-21T14:34:00.600Z,2846
2023-05-21T14:35:16.839Z,2583
2023-05-21T14:36:33.082Z,2720
2023-05-21T14:37:48.341Z,2967
2023-05-21T14:39:04.583Z,2315
2023-05-21T14:40:20.814Z,2701
2023-05-21T14:41:37.061Z,3086
2023-05-21T14:42:53.291Z,2839
2023-05-21T14:44:09.528Z,2697
2023-05-21T14:45:25.777Z,2801
2023-05-21T14:46:42.016Z,2515
2023-05-21T14:47:58.266Z,2757
2023-05-21T14:49:14.490Z,2575
2023-05-21T14:50:30.746Z,2425
2023-05-21T14:51:46.975Z,2604
2023-05-21T14:53:03.274Z,2517
2023-05-21T14:54:18.465Z,2755
2023-05-21T14:55:34.723Z,2538
2023-05-21T14:56:51.009Z,2757
2023-05-21T14:58:07.200Z,2607
2023-05-21T14:59:23.441Z,2428
2023-05-21T15:00:39.729Z,2480
2023-05-21T15:01:55.912Z,2512
2023-05-21T15:03:12.161Z,2460
2023-05-21T15:04:28.385Z,2450
2023-05-21T15:05:44.636Z,2466
2023-05-21T15:07:00.879Z,2377
2023-05-21T15:08:17.161Z,2433
2023-05-21T15:09:33.339Z,2330
2023-05-21T15:10:48.612Z,2412
2023-05-21T15:12:04.889Z,2376
2023-05-21T15:13:21.087Z,2374
2023-05-21T15:14:37.320Z,2325
2023-05-21T15:15:53.554Z,2325
2023-05-21T15:17:09.848Z,2527
2023-05-21T15:18:26.041Z,2401
2023-05-21T15:19:42.278Z,2367
2023-05-21T15:20:58.513Z,2297
2023-05-21T15:22:14.765Z,2280
2023-05-21T15:23:31.006Z,2346
2023-05-21T15:24:47.231Z,2223
2023-05-21T15:26:03.485Z,2213
2023-05-21T15:27:18.747Z,2161
2023-05-21T15:28:34.966Z,2257
2023-05-21T15:29:51.220Z,2195
2023-05-21T15:31:07.450Z,2183
2023-05-21T15:32:23.703Z,2158
2023-05-21T15:33:39.928Z,2215
2023-05-21T15:34:56.171Z,2132
2023-05-21T15:36:12.410Z,2095
2023-05-21T15:37:28.644Z,2116
2023-05-21T15:38:44.896Z,2126
2023-05-21T15:40:01.141Z,1993
2023-05-21T15:41:17.378Z,2152
2023-05-21T15:42:33.617Z,2138
2023-05-21T15:43:48.864Z,2075
2023-05-21T15:45:05.109Z,2149
2023-05-21T15:46:21.346Z,2037
2023-05-21T15:47:37.590Z,2204
2023-05-21T15:48:53.831Z,2042
2023-05-21T15:50:10.078Z,2138
2023-05-21T15:51:26.308Z,2056
2023-05-21T15:52:42.549Z,2066
2023-05-21T15:53:58.830Z,2036
2023-05-21T15:55:15.022Z,2098
2023-05-21T15:56:31.258Z,2183
2023-05-21T15:57:47.503Z,2137
2023-05-21T15:59:03.794Z,2023
2023-05-21T16:00:18.991Z,2050
2023-05-21T16:01:35.242Z,2292
2023-05-21T16:02:51.479Z,2121
2023-05-21T16:04:07.711Z,2058
2023-05-21T16:05:23.967Z,2147
2023-05-21T16:06:40.194Z,2136
2023-05-21T16:07:56.448Z,2073
2023-05-21T16:09:12.668Z,2067
2023-05-21T16:10:28.908Z,2050
2023-05-21T16:11:45.157Z,1970
2023-05-21T16:13:01.397Z,1970
2023-05-21T16:14:17.632Z,1986
2023-05-21T16:15:33.886Z,2043
2023-05-21T16:16:49.126Z,2026
2023-05-21T16:18:05.379Z,2027
2023-05-21T16:19:21.616Z,2015
2023-05-21T16:20:37.840Z,2141
2023-05-21T16:21:54.141Z,1976
2023-05-21T16:23:10.387Z,1979
2023-05-21T16:24:26.566Z,1999
2023-05-21T16:25:42.814Z,1951
2023-05-21T16:26:59.053Z,2047
2023-05-21T16:28:15.296Z,1866
2023-05-21T16:29:31.525Z,1926
2023-05-21T16:32:04.016Z,1845
2023-05-21T16:33:19.253Z,1804
2023-05-21T16:34:35.508Z,1799
2023-05-21T16:35:51.753Z,1829
2023-05-21T16:37:07.981Z,1775
2023-05-21T16:38:24.214Z,1672
2023-05-21T16:39:40.455Z,1671
2023-05-21T16:40:56.761Z,1663
2023-05-21T16:42:12.993Z,1644
2023-05-21T16:43:29.171Z,1633
2023-05-21T16:44:45.427Z,1589
2023-05-21T16:46:01.710Z,1565
2023-05-21T16:47:17.896Z,1559
2023-05-21T16:48:34.139Z,1459
2023-05-21T16:49:49.385Z,1518
2023-05-21T16:51:05.641Z,1455
2023-05-21T16:52:21.882Z,1512
2023-05-21T16:53:38.118Z,1404
2023-05-21T16:54:54.359Z,1373
2023-05-21T16:56:10.593Z,1339
2023-05-21T16:57:26.831Z,1314
2023-05-21T16:58:43.079Z,1288
2023-05-21T16:59:59.312Z,1297
2023-05-21T17:01:15.561Z,1226
2023-05-21T17:02:31.784Z,1275
2023-05-21T17:03:48.034Z,1213
2023-05-21T17:05:04.267Z,1190
2023-05-21T17:06:19.535Z,1165
2023-05-21T17:07:35.759Z,1159
2023-05-21T17:08:52.012Z,1172
2023-05-21T17:10:08.243Z,1139
2023-05-21T17:11:24.486Z,1103
2023-05-21T17:13:56.967Z,1069
2023-05-21T17:15:12.221Z,1044
2023-05-21T17:16:28.462Z,1027
2023-05-21T17:17:44.701Z,1021
2023-05-21T17:19:00.950Z,1015
2023-05-21T17:20:17.181Z,964
2023-05-21T17:21:33.413Z,988
2023-05-21T17:22:49.655Z,954
2023-05-21T17:24:05.906Z,941
2023-05-21T17:25:22.196Z,913
2023-05-21T17:26:38.434Z,904
2023-05-21T17:27:54.630Z,881
2023-05-21T17:29:10.851Z,870
2023-05-21T17:30:27.094Z,861
2023-05-21T17:32:58.601Z,819
2023-05-21T17:34:14.841Z,796
2023-05-21T17:35:31.082Z,798
2023-05-21T17:36:47.336Z,766
2023-05-21T17:38:03.610Z,756
2023-05-21T17:39:19.797Z,737